Time;durP1;ratioP1;P1;durP2;ratioP2;P2;SDS_P1;SDS_P2;PMS_P1;PMS_P2;Temp;Humidity;BMP_temperature;BMP_pressure;BME280_temperature;BME280_humidity;BME280_pressure;Samples;Min_cycle;Max_cycle;Signal;HPM_P1;HPM_P2
2022/11/23 00:01:15;;;;;;;23.63;10.82;;;;;;;;;;5012309;28;96848;-65
2022/11/23 00:03:41;;;;;;;26.05;10.75;;;;;;;;;;5014066;28;93162;-65
2022/11/23 00:06:08;;;;;;;23.70;11.40;;;;;;;;;;5015097;28;93234;-65
2022/11/23 00:08:34;;;;;;;23.27;11.32;;;;;;;;;;5013694;28;94334;-65
2022/11/23 00:11:01;;;;;;;27.80;12.73;;;;;;;;;;5013216;28;92453;-65
2022/11/23 00:13:27;;;;;;;26.70;12.85;;;;;;;;;;5014813;28;93992;-65
2022/11/23 00:15:53;;;;;;;23.83;12.95;;;;;;;;;;5017224;28;93547;-65
2022/11/23 00:18:20;;;;;;;29.23;12.02;;;;;;;;;;5014828;28;94249;-66
2022/11/23 00:20:46;;;;;;;25.30;13.27;;;;;;;;;;5014100;28;94274;-66
2022/11/23 00:23:12;;;;;;;28.55;13.27;;;;;;;;;;5015104;28;92431;-66
2022/11/23 00:25:38;;;;;;;26.52;12.60;;;;;;;;;;5010824;28;94805;-66
2022/11/23 00:28:05;;;;;;;26.02;13.25;;;;;;;;;;5014191;28;93484;-65
2022/11/23 00:30:31;;;;;;;32.08;14.30;;;;;;;;;;5012727;28;92482;-67
2022/11/23 00:32:57;;;;;;;23.70;13.23;;;;;;;;;;5014608;28;93310;-65
2022/11/23 00:35:24;;;;;;;25.73;14.85;;;;;;;;;;5013344;28;93090;-65
2022/11/23 00:37:50;;;;;;;32.40;15.98;;;;;;;;;;5016754;28;92478;-66
2022/11/23 00:40:16;;;;;;;25.70;15.07;;;;;;;;;;5013838;28;93522;-66
2022/11/23 00:42:42;;;;;;;32.10;16.02;;;;;;;;;;5013544;28;92329;-66
2022/11/23 00:45:09;;;;;;;35.17;15.35;;;;;;;;;;5010538;28;95777;-66
2022/11/23 00:47:35;;;;;;;30.63;15.30;;;;;;;;;;5012863;28;93482;-65
2022/11/23 00:50:01;;;;;;;29.95;14.63;;;;;;;;;;5012398;28;94897;-66
2022/11/23 00:52:28;;;;;;;30.58;15.02;;;;;;;;;;5013247;28;95668;-66
2022/11/23 00:54:54;;;;;;;24.55;14.27;;;;;;;;;;4997696;28;93354;-66
2022/11/23 00:57:20;;;;;;;33.78;15.48;;;;;;;;;;5014730;28;92577;-67
2022/11/23 00:59:47;;;;;;;30.63;14.77;;;;;;;;;;5015340;28;95162;-66
2022/11/23 01:02:13;;;;;;;30.90;14.20;;;;;;;;;;5012532;28;92591;-66
2022/11/23 01:04:39;;;;;;;36.38;15.45;;;;;;;;;;5011686;28;94037;-66
2022/11/23 01:07:05;;;;;;;24.95;14.07;;;;;;;;;;5013913;28;92681;-65
2022/11/23 01:09:32;;;;;;;24.85;14.10;;;;;;;;;;5012679;28;92360;-65
2022/11/23 01:11:58;;;;;;;29.77;14.10;;;;;;;;;;5013019;28;93717;-66
2022/11/23 01:14:25;;;;;;;28.67;13.80;;;;;;;;;;5009860;28;96342;-65
2022/11/23 01:16:51;;;;;;;24.45;13.35;;;;;;;;;;5013869;28;92972;-66
2022/11/23 01:19:19;;;;;;;34.83;14.23;;;;;;;;;;5011919;28;95656;-66
2022/11/23 01:21:46;;;;;;;29.65;14.40;;;;;;;;;;5016410;28;93347;-66
2022/11/23 02:41:16;;;;;;;22.27;8.05;;;;;;;;;;5006466;28;94018;-66
2022/11/23 02:43:42;;;;;;;23.60;8.85;;;;;;;;;;5013988;28;92492;-66
2022/11/23 02:46:09;;;;;;;26.15;8.88;;;;;;;;;;5020422;28;93187;-65
2022/11/23 02:48:35;;;;;;;18.15;9.30;;;;;;;;;;5015058;28;95249;-66
2022/11/23 02:51:01;;;;;;;21.08;8.73;;;;;;;;;;5015264;28;95600;-65
2022/11/23 02:53:27;;;;;;;23.77;8.75;;;;;;;;;;5012995;28;93432;-66
2022/11/23 02:55:54;;;;;;;18.52;8.35;;;;;;;;;;5014623;28;92470;-65
2022/11/23 02:58:20;;;;;;;18.73;8.13;;;;;;;;;;5015931;28;93783;-65
2022/11/23 03:00:46;;;;;;;14.63;7.55;;;;;;;;;;5016295;28;93459;-66
2022/11/23 03:03:13;;;;;;;17.08;7.90;;;;;;;;;;5016253;28;92493;-66
2022/11/23 03:05:39;;;;;;;19.13;8.43;;;;;;;;;;5016908;28;93171;-66
2022/11/23 03:08:05;;;;;;;15.43;8.20;;;;;;;;;;5019105;28;94470;-66
2022/11/23 03:10:32;;;;;;;22.17;8.00;;;;;;;;;;5016027;28;93199;-65
2022/11/23 03:12:58;;;;;;;20.13;8.15;;;;;;;;;;5013927;28;96160;-65
2022/11/23 03:15:24;;;;;;;19.42;7.35;;;;;;;;;;5017268;28;92390;-65
2022/11/23 03:17:51;;;;;;;18.35;8.45;;;;;;;;;;5016331;28;93200;-66
2022/11/23 03:20:17;;;;;;;16.58;7.38;;;;;;;;;;5014419;28;94409;-66
2022/11/23 03:22:43;;;;;;;21.95;8.20;;;;;;;;;;5012545;28;92525;-67
2022/11/23 03:25:10;;;;;;;17.40;8.43;;;;;;;;;;5014277;28;94283;-66
2022/11/23 03:27:37;;;;;;;18.08;6.88;;;;;;;;;;5016547;28;93429;-66
2022/11/23 03:30:03;;;;;;;17.38;7.55;;;;;;;;;;5017463;28;91723;-65
2022/11/23 03:32:30;;;;;;;14.52;6.80;;;;;;;;;;5015214;28;95576;-64
2022/11/23 03:34:56;;;;;;;18.17;7.07;;;;;;;;;;5018252;28;92409;-64
2022/11/23 03:37:23;;;;;;;14.15;6.30;;;;;;;;;;5016736;28;94901;-65
2022/11/23 03:39:49;;;;;;;17.08;6.57;;;;;;;;;;5015868;28;96908;-64
2022/11/23 03:42:15;;;;;;;16.27;6.10;;;;;;;;;;5015311;28;92568;-65
2022/11/23 03:44:41;;;;;;;19.55;6.72;;;;;;;;;;5015097;28;93158;-65
2022/11/23 03:47:08;;;;;;;12.40;6.10;;;;;;;;;;5013257;28;93518;-67
2022/11/23 03:49:35;;;;;;;19.25;7.03;;;;;;;;;;5005071;28;92874;-65
2022/11/23 03:52:01;;;;;;;17.80;6.13;;;;;;;;;;5017272;28;94245;-65
2022/11/23 03:54:27;;;;;;;11.77;5.28;;;;;;;;;;5015747;28;91716;-65
2022/11/23 03:56:53;;;;;;;18.90;6.22;;;;;;;;;;5014430;28;92491;-65
2022/11/23 03:59:20;;;;;;;17.05;5.65;;;;;;;;;;5016360;28;94055;-65
2022/11/23 04:01:46;;;;;;;16.27;5.00;;;;;;;;;;5013847;28;94843;-65
2022/11/23 04:04:12;;;;;;;18.73;5.50;;;;;;;;;;5015219;28;95916;-65
2022/11/23 04:06:38;;;;;;;10.77;4.78;;;;;;;;;;5012657;28;93753;-65
2022/11/23 04:09:05;;;;;;;12.75;5.20;;;;;;;;;;5014926;28;92458;-65
2022/11/23 04:11:31;;;;;;;12.90;5.20;;;;;;;;;;5015674;28;94646;-66
2022/11/23 04:13:57;;;;;;;16.35;4.60;;;;;;;;;;5018750;28;93466;-65
2022/11/23 04:16:24;;;;;;;16.25;5.13;;;;;;;;;;5014384;28;96269;-65
2022/11/23 04:18:50;;;;;;;19.58;5.82;;;;;;;;;;5013734;27;91831;-65
2022/11/23 04:21:16;;;;;;;17.10;5.20;;;;;;;;;;5015255;28;92521;-65
2022/11/23 04:23:42;;;;;;;22.45;6.35;;;;;;;;;;5013707;28;93445;-66
2022/11/23 04:26:09;;;;;;;14.23;5.13;;;;;;;;;;5009549;28;96204;-65
2022/11/23 04:28:35;;;;;;;13.75;5.82;;;;;;;;;;5014173;28;92450;-65
2022/11/23 04:31:01;;;;;;;14.07;5.18;;;;;;;;;;5013761;28;93950;-65
2022/11/23 04:33:27;;;;;;;19.88;6.50;;;;;;;;;;5017506;28;93293;-65
2022/11/23 04:35:54;;;;;;;19.92;6.10;;;;;;;;;;5013937;28;93223;-65
2022/11/23 04:38:20;;;;;;;11.82;5.72;;;;;;;;;;5004095;28;93448;-65
2022/11/23 04:40:47;;;;;;;17.92;6.85;;;;;;;;;;5013796;28;92594;-65
2022/11/23 04:43:14;;;;;;;15.73;6.07;;;;;;;;;;5015034;28;93428;-65
2022/11/23 04:45:40;;;;;;;15.23;6.75;;;;;;;;;;5012894;28;93759;-65
2022/11/23 04:48:07;;;;;;;19.15;6.03;;;;;;;;;;5013407;28;92502;-65
2022/11/23 04:50:34;;;;;;;14.10;5.57;;;;;;;;;;5012401;28;95611;-65
2022/11/23 04:53:00;;;;;;;22.38;6.97;;;;;;;;;;5013676;28;93402;-65
2022/11/23 04:55:26;;;;;;;18.83;5.57;;;;;;;;;;5016408;28;93903;-65
2022/11/23 04:57:53;;;;;;;17.17;4.97;;;;;;;;;;5013832;27;93716;-65
2022/11/23 05:00:19;;;;;;;17.70;6.38;;;;;;;;;;5015234;28;92791;-65
2022/11/23 05:02:45;;;;;;;15.93;5.22;;;;;;;;;;5014428;28;93306;-66
2022/11/23 05:05:12;;;;;;;20.63;5.65;;;;;;;;;;5013872;28;93686;-66
2022/11/23 05:07:38;;;;;;;17.60;4.93;;;;;;;;;;5013550;28;91866;-66
2022/11/23 05:10:04;;;;;;;20.67;5.88;;;;;;;;;;5021480;28;92929;-66
2022/11/23 05:12:31;;;;;;;20.42;5.53;;;;;;;;;;5017016;28;93400;-65
2022/11/23 05:14:57;;;;;;;17.30;5.10;;;;;;;;;;5030251;28;94927;-65
2022/11/23 05:17:23;;;;;;;15.50;4.57;;;;;;;;;;5012236;28;95370;-65
2022/11/23 05:19:50;;;;;;;16.30;4.72;;;;;;;;;;5019608;28;92517;-65
2022/11/23 05:22:16;;;;;;;14.60;5.13;;;;;;;;;;5019126;28;93151;-65
2022/11/23 05:24:42;;;;;;;18.50;4.88;;;;;;;;;;5011833;28;93542;-66
2022/11/23 05:27:08;;;;;;;19.30;4.93;;;;;;;;;;5011938;28;92616;-65
2022/11/23 05:29:35;;;;;;;19.77;4.47;;;;;;;;;;5012590;28;93485;-66
2022/11/23 05:32:02;;;;;;;24.75;4.80;;;;;;;;;;5024179;28;93548;-65
2022/11/23 05:34:28;;;;;;;20.92;4.60;;;;;;;;;;5028518;27;94228;-65
2022/11/23 05:36:54;;;;;;;16.45;4.78;;;;;;;;;;5011719;28;93935;-65
2022/11/23 05:39:20;;;;;;;15.70;4.05;;;;;;;;;;5012776;28;96225;-65
2022/11/23 05:41:47;;;;;;;13.77;5.30;;;;;;;;;;5011347;28;94148;-65
2022/11/23 05:44:13;;;;;;;15.05;4.57;;;;;;;;;;5028486;28;93405;-66
2022/11/23 05:46:39;;;;;;;19.13;4.75;;;;;;;;;;5012941;28;92656;-65
2022/11/23 05:49:05;;;;;;;15.27;3.85;;;;;;;;;;5014767;28;94178;-65
2022/11/23 05:51:32;;;;;;;19.85;4.35;;;;;;;;;;5013004;28;93883;-65
2022/11/23 05:53:59;;;;;;;15.40;4.30;;;;;;;;;;5017359;28;92459;-65
2022/11/23 05:56:26;;;;;;;13.95;3.92;;;;;;;;;;5017283;28;93146;-65
2022/11/23 05:58:53;;;;;;;14.18;3.95;;;;;;;;;;5016203;28;93424;-65
2022/11/23 06:01:20;;;;;;;8.68;4.13;;;;;;;;;;5020456;28;93911;-65
2022/11/23 06:03:48;;;;;;;18.90;4.65;;;;;;;;;;5015217;28;95155;-65
2022/11/23 06:06:14;;;;;;;10.45;3.90;;;;;;;;;;5017209;28;92548;-65
2022/11/23 06:08:40;;;;;;;21.60;5.18;;;;;;;;;;5015448;28;93932;-65
2022/11/23 06:11:14;;;;;;;18.60;4.63;;;;;;;;;;5012108;28;94480;-65
2022/11/23 06:13:40;;;;;;;15.07;4.47;;;;;;;;;;5010895;28;92467;-65
2022/11/23 06:16:06;;;;;;;16.35;4.22;;;;;;;;;;5017491;28;94437;-65
2022/11/23 06:18:33;;;;;;;16.08;4.10;;;;;;;;;;5017465;28;96023;-65
2022/11/23 06:20:59;;;;;;;13.63;4.25;;;;;;;;;;5016924;28;91869;-65
2022/11/23 06:23:26;;;;;;;19.23;4.93;;;;;;;;;;5017505;28;92589;-65
2022/11/23 06:25:53;;;;;;;21.08;4.22;;;;;;;;;;5016303;28;92585;-65
2022/11/23 06:28:19;;;;;;;19.13;3.85;;;;;;;;;;5015405;28;97494;-65
2022/11/23 06:30:45;;;;;;;21.65;3.58;;;;;;;;;;5016587;28;93808;-65
2022/11/23 06:33:12;;;;;;;15.80;4.00;;;;;;;;;;5021103;28;93393;-65
2022/11/23 06:35:38;;;;;;;14.13;3.30;;;;;;;;;;5013306;28;93552;-65
2022/11/23 06:38:04;;;;;;;14.23;3.30;;;;;;;;;;5014156;28;93241;-65
2022/11/23 06:40:30;;;;;;;14.30;3.33;;;;;;;;;;5014987;28;92561;-65
2022/11/23 06:42:58;;;;;;;18.23;3.90;;;;;;;;;;5017118;28;94173;-66
2022/11/23 06:45:26;;;;;;;19.15;3.95;;;;;;;;;;5002847;28;92940;-65
2022/11/23 06:47:55;;;;;;;17.17;3.45;;;;;;;;;;5015276;28;92495;-65
2022/11/23 06:50:22;;;;;;;16.27;3.30;;;;;;;;;;5017000;28;93780;-66
2022/11/23 06:52:52;;;;;;;16.40;3.95;;;;;;;;;;5014033;28;94930;-65
2022/11/23 06:55:18;;;;;;;12.52;3.38;;;;;;;;;;5015437;27;95922;-63
2022/11/23 06:57:45;;;;;;;13.13;3.38;;;;;;;;;;5016510;28;93289;-67
2022/11/23 07:00:11;;;;;;;16.83;3.58;;;;;;;;;;5013767;28;92512;-64
2022/11/23 07:02:38;;;;;;;19.73;4.78;;;;;;;;;;5014048;28;93210;-64
2022/11/23 07:05:04;;;;;;;15.82;3.50;;;;;;;;;;5017869;28;93345;-63
2022/11/23 07:07:31;;;;;;;19.27;3.88;;;;;;;;;;5016044;28;93312;-63
2022/11/23 07:09:57;;;;;;;17.38;4.05;;;;;;;;;;5015483;28;92524;-63
2022/11/23 07:12:29;;;;;;;21.35;3.90;;;;;;;;;;5017372;28;93450;-64
2022/11/23 07:14:55;;;;;;;15.77;3.17;;;;;;;;;;5028916;27;93480;-63
2022/11/23 07:17:21;;;;;;;20.17;3.38;;;;;;;;;;5013472;28;96111;-64
2022/11/23 07:19:47;;;;;;;13.98;3.10;;;;;;;;;;5014043;28;92549;-63
2022/11/23 07:22:14;;;;;;;19.10;3.53;;;;;;;;;;5029594;28;93453;-63
2022/11/23 07:24:40;;;;;;;16.67;3.38;;;;;;;;;;5029957;27;93849;-64
2022/11/23 07:27:11;;;;;;;14.77;3.35;;;;;;;;;;5019813;28;92520;-63
2022/11/23 07:29:38;;;;;;;16.98;2.92;;;;;;;;;;5015254;28;93836;-64
2022/11/23 07:32:05;;;;;;;19.75;3.67;;;;;;;;;;5016126;28;92568;-64
2022/11/23 07:34:32;;;;;;;18.20;3.28;;;;;;;;;;5014040;28;91998;-66
2022/11/23 07:36:58;;;;;;;18.75;3.10;;;;;;;;;;5013553;28;93440;-64
2022/11/23 07:39:27;;;;;;;20.67;3.95;;;;;;;;;;5012862;28;92510;-64
2022/11/23 07:42:13;;;;;;;15.90;2.83;;;;;;;;;;5013591;28;95311;-64
2022/11/23 07:45:00;;;;;;;18.15;2.80;;;;;;;;;;5017535;28;94520;-64
2022/11/23 07:47:26;;;;;;;20.20;3.65;;;;;;;;;;5014357;28;92568;-63
2022/11/23 07:49:52;;;;;;;25.92;3.53;;;;;;;;;;5017507;28;94287;-63
2022/11/23 07:52:19;;;;;;;18.13;3.22;;;;;;;;;;5014962;28;92690;-64
2022/11/23 07:54:45;;;;;;;18.02;3.13;;;;;;;;;;5017605;28;93453;-65
2022/11/23 07:57:11;;;;;;;21.25;3.55;;;;;;;;;;5001885;28;93779;-63
2022/11/23 07:59:38;;;;;;;25.08;3.28;;;;;;;;;;5035170;27;92195;-64
2022/11/23 08:02:05;;;;;;;22.23;3.45;;;;;;;;;;5012035;27;93190;-63
2022/11/23 08:04:31;;;;;;;12.75;2.95;;;;;;;;;;5004282;28;93479;-64
2022/11/23 08:06:59;;;;;;;24.10;3.58;;;;;;;;;;5021687;28;94933;-63
2022/11/23 08:09:25;;;;;;;13.90;2.65;;;;;;;;;;5017574;28;96668;-63
2022/11/23 08:11:52;;;;;;;22.38;3.83;;;;;;;;;;4999098;28;93362;-63
2022/11/23 08:14:18;;;;;;;18.85;3.25;;;;;;;;;;5032720;28;93125;-63
2022/11/23 08:16:47;;;;;;;23.15;3.70;;;;;;;;;;5019439;27;93194;-63
2022/11/23 08:19:13;;;;;;;16.77;3.38;;;;;;;;;;5017546;28;92643;-63
2022/11/23 08:21:40;;;;;;;16.10;3.13;;;;;;;;;;5012284;28;93836;-63
2022/11/23 08:24:06;;;;;;;20.42;2.90;;;;;;;;;;5017198;28;93027;-63
2022/11/23 08:26:32;;;;;;;18.52;2.70;;;;;;;;;;5027018;27;92445;-63
2022/11/23 08:28:59;;;;;;;24.25;3.17;;;;;;;;;;5028126;28;94012;-64
2022/11/23 08:31:25;;;;;;;31.67;3.58;;;;;;;;;;5027163;28;95117;-63
2022/11/23 08:33:51;;;;;;;18.35;3.13;;;;;;;;;;5031117;28;92459;-63
2022/11/23 08:36:19;;;;;;;20.77;2.85;;;;;;;;;;5014397;28;93649;-63
2022/11/23 08:38:45;;;;;;;17.40;3.22;;;;;;;;;;5013294;28;92517;-64
2022/11/23 08:41:11;;;;;;;20.00;2.88;;;;;;;;;;5020403;28;93260;-64
2022/11/23 08:43:37;;;;;;;16.92;2.85;;;;;;;;;;5011516;28;93707;-64
2022/11/23 08:46:04;;;;;;;18.00;3.40;;;;;;;;;;5014078;28;92518;-63
2022/11/23 08:48:36;;;;;;;25.73;3.25;;;;;;;;;;5016157;28;93482;-63
2022/11/23 08:51:03;;;;;;;20.75;4.43;;;;;;;;;;5018952;28;93845;-63
2022/11/23 08:53:29;;;;;;;19.13;3.47;;;;;;;;;;5024119;27;93598;-63
2022/11/23 08:55:58;;;;;;;18.73;3.40;;;;;;;;;;5029580;28;96365;-63
2022/11/23 08:58:25;;;;;;;21.17;3.72;;;;;;;;;;5025933;27;92667;-64
2022/11/23 09:00:51;;;;;;;21.52;3.75;;;;;;;;;;5014476;28;93175;-63
2022/11/23 09:03:17;;;;;;;17.35;3.65;;;;;;;;;;5015761;28;94437;-63
2022/11/23 09:05:43;;;;;;;22.88;4.30;;;;;;;;;;5022002;28;92450;-62
2022/11/23 09:08:10;;;;;;;18.30;2.88;;;;;;;;;;5019973;28;93322;-62
2022/11/23 09:10:37;;;;;;;30.20;4.20;;;;;;;;;;5033662;28;96563;-63
2022/11/23 09:13:03;;;;;;;14.52;2.78;;;;;;;;;;5026960;28;91814;-64
2022/11/23 09:15:29;;;;;;;16.75;2.50;;;;;;;;;;5018495;28;92582;-63
2022/11/23 09:17:56;;;;;;;14.82;2.65;;;;;;;;;;5018892;28;92389;-63
2022/11/23 09:20:23;;;;;;;14.63;2.80;;;;;;;;;;5033604;27;94862;-63
2022/11/23 09:22:50;;;;;;;17.45;3.13;;;;;;;;;;5026638;27;93735;-63
2022/11/23 09:25:17;;;;;;;12.88;3.00;;;;;;;;;;5014261;28;92589;-64
2022/11/23 09:27:44;;;;;;;23.77;3.35;;;;;;;;;;5014403;28;93173;-63
2022/11/23 09:30:10;;;;;;;15.95;3.00;;;;;;;;;;5032983;27;93664;-63
2022/11/23 09:32:37;;;;;;;17.90;2.67;;;;;;;;;;5029900;27;92526;-63
2022/11/23 09:35:03;;;;;;;26.92;3.88;;;;;;;;;;5014504;28;93595;-63
2022/11/23 09:37:29;;;;;;;20.30;2.90;;;;;;;;;;5014726;28;92785;-63
2022/11/23 09:39:56;;;;;;;21.42;3.35;;;;;;;;;;5023768;28;92476;-67
2022/11/23 09:42:25;;;;;;;18.02;3.00;;;;;;;;;;5018443;28;96133;-67
2022/11/23 09:44:52;;;;;;;22.03;2.80;;;;;;;;;;5023518;27;95108;-68
2022/11/23 09:47:24;;;;;;;15.10;3.17;;;;;;;;;;5015297;27;96907;-67
2022/11/23 09:49:56;;;;;;;20.83;3.95;;;;;;;;;;5017426;28;93368;-67
2022/11/23 09:52:23;;;;;;;15.32;2.42;;;;;;;;;;5021224;27;92536;-68
2022/11/23 09:54:52;;;;;;;16.17;2.80;;;;;;;;;;5034703;27;93042;-68
2022/11/23 09:57:20;;;;;;;17.63;2.50;;;;;;;;;;5015939;27;93843;-67
2022/11/23 09:59:54;;;;;;;22.27;3.65;;;;;;;;;;5015899;28;93244;-67
2022/11/23 10:02:24;;;;;;;17.50;2.78;;;;;;;;;;5001219;28;92670;-69
2022/11/23 10:04:52;;;;;;;13.25;2.65;;;;;;;;;;5031497;27;92642;-66
2022/11/23 10:07:24;;;;;;;20.27;4.50;;;;;;;;;;5034242;27;93302;-66
2022/11/23 10:10:15;;;;;;;18.40;3.60;;;;;;;;;;5018915;27;95971;-67
2022/11/23 10:12:46;;;;;;;19.90;4.32;;;;;;;;;;5013755;28;92408;-68
2022/11/23 10:15:33;;;;;;;18.75;3.28;;;;;;;;;;5013580;28;93184;-68
2022/11/23 10:17:59;;;;;;;18.17;3.45;;;;;;;;;;4991071;28;93839;-68
2022/11/23 10:20:25;;;;;;;20.30;3.42;;;;;;;;;;5009979;28;94365;-68
2022/11/23 10:22:57;;;;;;;17.02;2.72;;;;;;;;;;5031778;28;93401;-67
2022/11/23 10:25:24;;;;;;;10.00;2.15;;;;;;;;;;5034100;27;92726;-67
2022/11/23 10:27:53;;;;;;;19.23;2.92;;;;;;;;;;5030962;27;93234;-67
2022/11/23 10:30:20;;;;;;;7.82;2.08;;;;;;;;;;5017867;28;94700;-68
2022/11/23 10:33:10;;;;;;;13.52;2.85;;;;;;;;;;5014885;27;93412;-68
2022/11/23 10:35:37;;;;;;;;;;;;;;;;;;5030791;28;94892;-68
2022/11/23 10:38:13;;;;;;;12.32;2.75;;;;;;;;;;5029500;27;124128;-68
2022/11/23 10:40:50;;;;;;;19.02;2.67;;;;;;;;;;5013326;28;93713;-67
2022/11/23 10:43:19;;;;;;;11.73;2.65;;;;;;;;;;5024058;28;94602;-68
2022/11/23 10:45:47;;;;;;;17.07;2.73;;;;;;;;;;5029982;27;92648;-67
2022/11/23 10:48:31;;;;;;;9.50;3.00;;;;;;;;;;5016222;28;93374;-69
2022/11/23 10:51:14;;;;;;;13.80;2.47;;;;;;;;;;5032402;28;94135;-68
2022/11/23 10:53:40;;;;;;;10.68;2.70;;;;;;;;;;5018428;28;93135;-68
2022/11/23 10:56:10;;;;;;;12.13;3.20;;;;;;;;;;5035175;27;92442;-68
2022/11/23 10:58:44;;;;;;;13.75;3.42;;;;;;;;;;5025112;27;93681;-68
2022/11/23 11:01:23;;;;;;;13.52;2.60;;;;;;;;;;5014553;28;94845;-66
2022/11/23 11:03:51;;;;;;;11.50;2.70;;;;;;;;;;5016079;28;95886;-68
2022/11/23 11:06:21;;;;;;;17.88;2.83;;;;;;;;;;5019292;28;94514;-68
2022/11/23 11:08:49;;;;;;;13.48;2.90;;;;;;;;;;5023449;28;93170;-68
2022/11/23 11:11:21;;;;;;;16.60;2.53;;;;;;;;;;5035663;27;92322;-67
2022/11/23 11:13:47;;;;;;;12.88;3.33;;;;;;;;;;5016230;28;92540;-68
2022/11/23 11:16:16;;;;;;;14.23;3.67;;;;;;;;;;5017331;28;93118;-68
2022/11/23 11:18:43;;;;;;;13.98;2.83;;;;;;;;;;5014998;28;92608;-68
2022/11/23 11:21:19;;;;;;;15.77;3.42;;;;;;;;;;5028909;28;94048;-67
2022/11/23 11:23:58;;;;;;;15.27;3.10;;;;;;;;;;5016562;28;93507;-68
2022/11/23 11:26:25;;;;;;;14.70;3.78;;;;;;;;;;5013224;27;96989;-68
2022/11/23 11:28:55;;;;;;;16.15;4.25;;;;;;;;;;5038386;27;92379;-68
2022/11/23 11:31:24;;;;;;;10.95;3.42;;;;;;;;;;5036682;27;93412;-68
2022/11/23 11:34:08;;;;;;;12.65;3.30;;;;;;;;;;5020687;27;94300;-68
2022/11/23 11:36:41;;;;;;;15.35;3.28;;;;;;;;;;5012993;28;95024;-67
2022/11/23 11:39:11;;;;;;;17.92;3.55;;;;;;;;;;5026731;28;94754;-68
2022/11/23 11:41:46;;;;;;;12.95;2.90;;;;;;;;;;5035184;27;92432;-68
2022/11/23 11:44:16;;;;;;;20.40;3.58;;;;;;;;;;5037202;27;93006;-69
2022/11/23 11:46:44;;;;;;;11.18;2.33;;;;;;;;;;5031160;27;93467;-69
2022/11/23 11:49:13;;;;;;;13.80;2.30;;;;;;;;;;5015130;27;94121;-68
2022/11/23 11:51:41;;;;;;;14.02;2.45;;;;;;;;;;5037020;27;94733;-68
2022/11/23 11:54:22;;;;;;;15.05;2.60;;;;;;;;;;5036606;27;92517;-68
2022/11/23 11:56:54;;;;;;;14.32;2.78;;;;;;;;;;5025087;27;93248;-68
2022/11/23 11:59:32;;;;;;;14.60;3.15;;;;;;;;;;5031180;28;93726;-67
2022/11/23 12:02:17;;;;;;;8.95;2.38;;;;;;;;;;5035445;28;92533;-69
2022/11/23 12:05:02;;;;;;;7.63;2.58;;;;;;;;;;5036161;27;93605;-68
2022/11/23 12:07:30;;;;;;;10.82;3.13;;;;;;;;;;5015848;27;94346;-68
2022/11/23 12:10:03;;;;;;;8.93;2.78;;;;;;;;;;5019329;28;91882;-68
2022/11/23 12:12:30;;;;;;;7.13;1.90;;;;;;;;;;5014061;28;92528;-68
2022/11/23 12:14:57;;;;;;;11.95;2.60;;;;;;;;;;5017856;28;93538;-69
2022/11/23 12:17:40;;;;;;;11.23;2.22;;;;;;;;;;5010860;28;94873;-68
2022/11/23 12:20:07;;;;;;;8.65;2.28;;;;;;;;;;5009890;28;92851;-68
2022/11/23 12:22:48;;;;;;;11.13;1.95;;;;;;;;;;5014167;28;92614;-68
2022/11/23 12:25:14;;;;;;;6.45;1.95;;;;;;;;;;5016279;28;94297;-68
2022/11/23 12:27:40;;;;;;;11.90;2.50;;;;;;;;;;5013601;28;92808;-68
2022/11/23 12:30:16;;;;;;;6.70;2.40;;;;;;;;;;5013430;28;93845;-68
2022/11/23 12:32:54;;;;;;;13.98;2.75;;;;;;;;;;5014442;28;92776;-63
2022/11/23 12:35:40;;;;;;;9.35;2.55;;;;;;;;;;5015948;28;92754;-62
2022/11/23 12:38:17;;;;;;;13.98;2.10;;;;;;;;;;5023268;28;92780;-64
2022/11/23 12:40:51;;;;;;;10.73;2.58;;;;;;;;;;5035219;27;93648;-62
2022/11/23 12:43:36;;;;;;;10.50;2.28;;;;;;;;;;5024978;27;94911;-62
2022/11/23 12:46:07;;;;;;;9.65;2.80;;;;;;;;;;5026113;28;96663;-62
2022/11/23 12:48:33;;;;;;;11.00;2.60;;;;;;;;;;5024462;27;93430;-62
2022/11/23 12:51:06;;;;;;;9.80;2.20;;;;;;;;;;5029843;28;92413;-62
2022/11/23 12:53:39;;;;;;;6.90;1.80;;;;;;;;;;5035293;27;93149;-63
2022/11/23 12:56:17;;;;;;;8.80;1.92;;;;;;;;;;5029806;28;93780;-62
2022/11/23 12:58:45;;;;;;;8.20;2.72;;;;;;;;;;5029880;27;93778;-62
2022/11/23 13:01:11;;;;;;;10.27;2.45;;;;;;;;;;5021102;27;93691;-62
2022/11/23 13:03:37;;;;;;;18.88;2.40;;;;;;;;;;5015230;28;92502;-62
2022/11/23 13:06:04;;;;;;;12.65;2.67;;;;;;;;;;5013189;28;93174;-63
2022/11/23 13:08:48;;;;;;;10.07;2.53;;;;;;;;;;5022561;27;95819;-63
2022/11/23 13:11:36;;;;;;;11.90;2.58;;;;;;;;;;5032122;28;92486;-63
2022/11/23 13:14:08;;;;;;;16.95;2.30;;;;;;;;;;5021651;28;93995;-63
2022/11/23 13:16:40;;;;;;;11.27;2.40;;;;;;;;;;5019437;28;94525;-63
2022/11/23 13:19:06;;;;;;;8.55;2.15;;;;;;;;;;5033020;27;92530;-63
2022/11/23 13:21:38;;;;;;;12.82;2.45;;;;;;;;;;5022603;27;94377;-63
2022/11/23 13:24:22;;;;;;;12.80;2.15;;;;;;;;;;5031236;28;92517;-63
2022/11/23 13:27:08;;;;;;;15.05;2.40;;;;;;;;;;5032899;27;93942;-63
2022/11/23 13:29:45;;;;;;;6.70;1.58;;;;;;;;;;5020606;28;93464;-63
2022/11/23 13:32:32;;;;;;;11.57;1.50;;;;;;;;;;5013403;28;92556;-63
2022/11/23 13:34:59;;;;;;;11.82;2.28;;;;;;;;;;5013033;28;94808;-63
2022/11/23 13:37:25;;;;;;;8.65;2.05;;;;;;;;;;5030684;28;93344;-63
2022/11/23 13:39:59;;;;;;;10.80;2.55;;;;;;;;;;5019021;27;92614;-63
2022/11/23 13:42:25;;;;;;;7.72;1.70;;;;;;;;;;5014497;28;93216;-63
2022/11/23 13:45:10;;;;;;;7.15;1.90;;;;;;;;;;5017310;27;93909;-61
2022/11/23 13:47:37;;;;;;;13.00;2.75;;;;;;;;;;5015284;28;93338;-62
2022/11/23 13:50:17;;;;;;;6.40;2.05;;;;;;;;;;5024558;27;93573;-64
2022/11/23 13:52:48;;;;;;;7.70;1.67;;;;;;;;;;5013309;28;92155;-63
2022/11/23 13:55:14;;;;;;;8.38;1.48;;;;;;;;;;5014010;28;92379;-64
2022/11/23 13:57:41;;;;;;;5.78;1.55;;;;;;;;;;5010553;28;93381;-63
2022/11/23 14:00:26;;;;;;;7.93;1.80;;;;;;;;;;5030724;27;94823;-62
2022/11/23 14:03:13;;;;;;;7.38;1.70;;;;;;;;;;5031583;28;96659;-63
2022/11/23 14:05:48;;;;;;;10.52;2.17;;;;;;;;;;5029659;27;93732;-62
2022/11/23 14:08:16;;;;;;;8.52;2.35;;;;;;;;;;5017547;28;92371;-63
2022/11/23 14:10:42;;;;;;;11.77;2.53;;;;;;;;;;5034148;27;93414;-63
2022/11/23 14:13:16;;;;;;;10.98;2.70;;;;;;;;;;5022817;27;93568;-68
2022/11/23 14:15:45;;;;;;;8.05;1.88;;;;;;;;;;5016251;28;93123;-68
2022/11/23 14:18:30;;;;;;;8.65;2.45;;;;;;;;;;5023170;28;92758;-68
2022/11/23 14:21:04;;;;;;;6.05;1.35;;;;;;;;;;5024264;27;92630;-68
2022/11/23 14:23:43;;;;;;;10.80;1.67;;;;;;;;;;5010907;28;93488;-68
2022/11/23 14:26:15;;;;;;;11.60;2.10;;;;;;;;;;4995734;28;95797;-69
2022/11/23 14:28:51;;;;;;;4.03;1.67;;;;;;;;;;5016371;27;92410;-68
2022/11/23 14:31:24;;;;;;;9.30;1.60;;;;;;;;;;5018531;28;94461;-68
2022/11/23 14:33:50;;;;;;;5.57;1.67;;;;;;;;;;5037692;27;92460;-69
2022/11/23 14:36:17;;;;;;;9.73;2.42;;;;;;;;;;5037758;27;93482;-68
2022/11/23 14:38:52;;;;;;;11.45;2.45;;;;;;;;;;5037756;27;94330;-69
2022/11/23 14:41:20;;;;;;;9.75;2.55;;;;;;;;;;5027570;27;92564;-68
2022/11/23 14:43:48;;;;;;;8.23;2.75;;;;;;;;;;5038148;27;93221;-68
2022/11/23 14:46:17;;;;;;;8.75;2.25;;;;;;;;;;5026133;27;93434;-67
2022/11/23 14:48:47;;;;;;;13.77;3.22;;;;;;;;;;5016047;28;92566;-69
2022/11/23 14:51:21;;;;;;;11.05;2.10;;;;;;;;;;5012740;28;95085;-68
2022/11/23 14:53:52;;;;;;;7.93;2.70;;;;;;;;;;5029614;28;93472;-64
2022/11/23 14:56:20;;;;;;;10.98;3.17;;;;;;;;;;5037551;27;93139;-63
2022/11/23 14:58:47;;;;;;;11.73;3.53;;;;;;;;;;5037047;27;93679;-63
2022/11/23 15:01:22;;;;;;;9.93;2.28;;;;;;;;;;5011159;27;94328;-64
2022/11/23 15:04:14;;;;;;;8.23;1.80;;;;;;;;;;5033908;27;92457;-68
2022/11/23 15:06:42;;;;;;;7.05;2.15;;;;;;;;;;5020296;28;93433;-69
2022/11/23 15:09:11;;;;;;;;;;;;;;;;;;5016427;28;91820;-69
2022/11/23 15:11:37;;;;;;;13.27;3.15;;;;;;;;;;5016323;28;122753;-68
2022/11/23 15:14:15;;;;;;;5.78;2.22;;;;;;;;;;5027195;27;93464;-68
2022/11/23 15:16:42;;;;;;;7.65;2.28;;;;;;;;;;5021206;27;94830;-68
2022/11/23 15:19:28;;;;;;;9.65;1.83;;;;;;;;;;5016556;28;92398;-68
2022/11/23 15:21:55;;;;;;;4.07;1.63;;;;;;;;;;5014405;28;92975;-69
2022/11/23 15:24:22;;;;;;;3.95;2.10;;;;;;;;;;5024687;27;92583;-67
2022/11/23 15:26:49;;;;;;;10.38;2.38;;;;;;;;;;5034473;27;93382;-69
2022/11/23 15:29:28;;;;;;;7.55;2.05;;;;;;;;;;5033397;27;94098;-69
2022/11/23 15:31:55;;;;;;;7.32;1.88;;;;;;;;;;5016250;28;93443;-68
2022/11/23 15:34:41;;;;;;;5.35;1.95;;;;;;;;;;5028642;27;92343;-68
2022/11/23 15:37:08;;;;;;;7.00;2.50;;;;;;;;;;5018819;27;92436;-68
2022/11/23 15:39:35;;;;;;;8.32;3.15;;;;;;;;;;5014414;28;93745;-69
2022/11/23 15:42:01;;;;;;;10.73;2.47;;;;;;;;;;5028948;27;95120;-69
2022/11/23 15:44:34;;;;;;;5.70;2.40;;;;;;;;;;5036582;27;96935;-67
2022/11/23 15:47:02;;;;;;;3.30;2.20;;;;;;;;;;5017729;27;93382;-69
2022/11/23 15:49:29;;;;;;;11.70;3.22;;;;;;;;;;5010853;28;92594;-68
2022/11/23 15:51:59;;;;;;;10.13;4.00;;;;;;;;;;5014770;28;94241;-69
2022/11/23 15:54:33;;;;;;;9.80;2.72;;;;;;;;;;5016574;28;94496;-68
2022/11/23 15:57:00;;;;;;;7.53;2.78;;;;;;;;;;5015629;28;93547;-67
2022/11/23 15:59:30;;;;;;;7.30;2.47;;;;;;;;;;5021034;28;93203;-69